createdAt,value
2018-11-20T00:00:05.830Z,1009.60
2018-11-20T00:01:05.844Z,1009.65
2018-11-20T00:02:05.838Z,1009.50
2018-11-20T00:03:05.802Z,1009.60
2018-11-20T00:04:05.795Z,1009.52
2018-11-20T00:05:05.799Z,1009.48
2018-11-20T00:06:05.774Z,1009.41
2018-11-20T00:07:05.879Z,1009.51
2018-11-20T00:08:05.760Z,1009.50
2018-11-20T00:09:05.843Z,1009.45
2018-11-20T00:10:05.720Z,1009.49
2018-11-20T00:11:05.712Z,1009.57
2018-11-20T00:12:05.709Z,1009.48
2018-11-20T00:13:05.694Z,1009.49
2018-11-20T00:14:05.713Z,1009.42
2018-11-20T00:15:05.663Z,1009.46
2018-11-20T00:16:05.661Z,1009.56
2018-11-20T00:17:05.647Z,1009.54
2018-11-20T00:18:05.644Z,1009.44
2018-11-20T00:19:05.646Z,1009.53
2018-11-20T00:20:05.620Z,1009.53
2018-11-20T00:21:05.608Z,1009.52
2018-11-20T00:22:05.590Z,1009.52
2018-11-20T00:23:05.672Z,1009.47
2018-11-20T00:24:05.609Z,1009.46
2018-11-20T00:25:05.585Z,1009.48
2018-11-20T00:26:05.545Z,1009.50
2018-11-20T00:27:05.536Z,1009.42
2018-11-20T00:28:05.530Z,1009.51
2018-11-20T00:29:05.511Z,1009.39
2018-11-20T00:30:05.530Z,1009.38
2018-11-20T00:31:05.489Z,1009.37
2018-11-20T00:32:05.515Z,1009.30
2018-11-20T00:33:05.475Z,1009.37
2018-11-20T00:34:05.466Z,1009.44
2018-11-20T00:35:05.450Z,1009.32
2018-11-20T00:36:05.468Z,1009.41
2018-11-20T00:37:05.427Z,1009.34
2018-11-20T00:38:05.415Z,1009.29
2018-11-20T00:39:05.400Z,1009.32
2018-11-20T00:40:05.395Z,1009.27
2018-11-20T00:41:05.424Z,1009.46
2018-11-20T00:42:05.386Z,1009.24
2018-11-20T00:43:05.362Z,1009.34
2018-11-20T00:44:05.349Z,1009.34
2018-11-20T00:45:05.348Z,1009.27
2018-11-20T00:46:05.347Z,1009.28
2018-11-20T00:47:05.350Z,1009.28
2018-11-20T00:48:05.339Z,1009.31
2018-11-20T00:49:05.292Z,1009.37
2018-11-20T00:50:05.288Z,1009.28
2018-11-20T00:51:05.277Z,1009.35
2018-11-20T00:52:05.265Z,1009.38
2018-11-20T00:53:05.296Z,1009.29
2018-11-20T00:54:05.244Z,1009.32
2018-11-20T00:55:05.255Z,1009.33
2018-11-20T00:56:05.216Z,1009.34
2018-11-20T00:57:05.238Z,1009.37
2018-11-20T00:58:05.197Z,1009.40
2018-11-20T00:59:05.208Z,1009.25
2018-11-20T01:00:05.176Z,1009.39
2018-11-20T01:01:05.175Z,1009.34
2018-11-20T01:02:05.159Z,1009.33
2018-11-20T01:03:05.155Z,1009.27
2018-11-20T01:04:05.167Z,1009.28
2018-11-20T01:05:05.118Z,1009.23
2018-11-20T01:06:05.129Z,1009.21
2018-11-20T01:07:05.105Z,1009.25
2018-11-20T01:08:05.125Z,1009.20
2018-11-20T01:09:05.108Z,1009.28
2018-11-20T01:10:05.114Z,1009.26
2018-11-20T01:11:05.074Z,1009.19
2018-11-20T01:12:05.050Z,1009.16
2018-11-20T01:13:05.037Z,1009.25
2018-11-20T01:14:05.027Z,1009.14
2018-11-20T01:15:12.459Z,1009.10
2018-11-20T01:16:05.023Z,1009.16
2018-11-20T01:17:05.031Z,1009.28
2018-11-20T01:18:04.982Z,1009.25
2018-11-20T01:19:04.994Z,1009.16
2018-11-20T01:20:05.001Z,1009.22
2018-11-20T01:21:55.798Z,1009.13
2018-11-20T01:22:55.782Z,1009.25
2018-11-20T01:23:55.769Z,1009.12
2018-11-20T01:24:55.770Z,1009.14
2018-11-20T01:25:55.785Z,1009.19
2018-11-20T01:26:55.738Z,1009.11
2018-11-20T01:27:55.760Z,1009.08
2018-11-20T01:28:55.715Z,1009.03
2018-11-20T01:29:55.713Z,1009.00
2018-11-20T01:30:55.733Z,1009.04
2018-11-20T01:31:55.686Z,1008.97
2018-11-20T01:32:55.685Z,1008.99
2018-11-20T01:33:55.664Z,1009.04
2018-11-20T01:34:55.651Z,1008.98
2018-11-20T01:35:55.674Z,1008.98
2018-11-20T01:36:55.659Z,1008.91
2018-11-20T01:37:55.647Z,1008.97
2018-11-20T01:38:55.613Z,1008.94
2018-11-20T01:39:55.596Z,1009.00
2018-11-20T01:40:55.606Z,1008.81
2018-11-20T01:41:55.592Z,1008.82
2018-11-20T01:42:55.605Z,1008.82
2018-11-20T01:43:55.591Z,1008.78
2018-11-20T01:44:55.545Z,1008.78
2018-11-20T01:45:55.536Z,1008.77
2018-11-20T01:46:55.519Z,1008.84
2018-11-20T01:47:55.542Z,1008.77
2018-11-20T01:48:55.502Z,1008.92
2018-11-20T01:49:55.491Z,1008.90
2018-11-20T01:50:55.476Z,1008.83
2018-11-20T01:51:55.473Z,1008.80
2018-11-20T01:52:55.496Z,1008.74
2018-11-20T01:53:55.478Z,1008.82
2018-11-20T01:54:55.437Z,1008.63
2018-11-20T01:55:55.430Z,1008.64
2018-11-20T01:56:55.445Z,1008.64
2018-11-20T01:57:55.442Z,1008.62
2018-11-20T01:58:55.397Z,1008.56
2018-11-20T01:59:55.377Z,1008.56
2018-11-20T02:00:55.395Z,1008.51
2018-11-20T02:01:55.355Z,1008.53
2018-11-20T02:02:55.348Z,1008.48
2018-11-20T02:03:55.373Z,1008.40
2018-11-20T02:04:55.328Z,1008.43
2018-11-20T02:05:55.334Z,1008.41
2018-11-20T02:06:55.302Z,1008.37
2018-11-20T02:07:55.344Z,1008.33
2018-11-20T02:08:55.333Z,1008.38
2018-11-20T02:09:55.275Z,1008.22
2018-11-20T02:10:55.258Z,1008.32
2018-11-20T02:11:55.252Z,1008.27
2018-11-20T02:12:55.243Z,1008.21
2018-11-20T02:13:55.263Z,1008.19
2018-11-20T02:14:55.222Z,1008.28
2018-11-20T02:15:55.281Z,1008.15
2018-11-20T02:16:55.192Z,1008.15
2018-11-20T02:17:55.181Z,1008.20
2018-11-20T02:18:55.206Z,1008.11
2018-11-20T02:19:55.161Z,1008.12
2018-11-20T02:20:55.151Z,1008.12
2018-11-20T02:21:55.139Z,1008.10
2018-11-20T02:22:55.158Z,1008.04
2018-11-20T02:23:55.130Z,1007.97
2018-11-20T02:24:55.120Z,1008.07
2018-11-20T02:25:55.133Z,1008.02
2018-11-20T02:26:55.083Z,1008.04
2018-11-20T02:27:55.076Z,1007.93
2018-11-20T02:28:55.066Z,1007.98
2018-11-20T02:29:55.054Z,1007.92
2018-11-20T02:30:55.080Z,1008.07
2018-11-20T02:31:55.034Z,1008.02
2018-11-20T02:32:55.052Z,1007.97
2018-11-20T02:33:55.008Z,1008.02
2018-11-20T02:34:54.997Z,1008.04
2018-11-20T02:35:54.991Z,1007.98
2018-11-20T02:36:54.979Z,1007.90
2018-11-20T02:37:54.998Z,1007.93
2018-11-20T02:38:54.954Z,1007.91
2018-11-20T02:39:54.955Z,1007.73
2018-11-20T02:40:54.936Z,1007.90
2018-11-20T02:41:54.919Z,1007.72
2018-11-20T02:42:54.946Z,1007.83
2018-11-20T02:43:54.900Z,1007.81
2018-11-20T02:44:54.891Z,1007.81
2018-11-20T02:45:54.916Z,1007.85
2018-11-20T02:46:54.870Z,1007.78
2018-11-20T02:47:54.861Z,1007.78
2018-11-20T02:48:54.851Z,1007.81
2018-11-20T02:49:54.842Z,1007.70
2018-11-20T02:50:54.860Z,1007.77
2018-11-20T02:51:54.820Z,1007.70
2018-11-20T02:52:54.803Z,1007.66
2018-11-20T02:53:54.793Z,1007.74
2018-11-20T02:54:54.779Z,1007.71
2018-11-20T02:55:54.797Z,1007.73
2018-11-20T02:56:54.789Z,1007.71
2018-11-20T02:57:54.781Z,1007.59
2018-11-20T02:58:54.737Z,1007.68
2018-11-20T02:59:54.728Z,1007.66
2018-11-20T03:00:54.730Z,1007.67
2018-11-20T03:01:54.711Z,1007.56
2018-11-20T03:02:54.766Z,1007.56
2018-11-20T03:03:54.768Z,1007.59
2018-11-20T03:04:54.721Z,1007.56
2018-11-20T03:05:54.663Z,1007.51
2018-11-20T03:06:54.649Z,1007.57
2018-11-20T03:07:54.667Z,1007.50
2018-11-20T03:08:54.655Z,1007.55
2018-11-20T03:09:54.626Z,1007.49
2018-11-20T03:10:54.607Z,1007.52
2018-11-20T03:11:54.642Z,1007.46
2018-11-20T03:12:54.580Z,1007.55
2018-11-20T03:13:54.574Z,1007.46
2018-11-20T03:14:54.567Z,1007.52
2018-11-20T03:15:54.551Z,1007.53
2018-11-20T03:16:54.570Z,1007.43
2018-11-20T03:17:54.585Z,1007.47
2018-11-20T03:18:54.518Z,1007.44
2018-11-20T03:19:54.524Z,1007.56
2018-11-20T03:20:54.499Z,1007.37
2018-11-20T03:21:54.487Z,1007.33
2018-11-20T03:22:54.513Z,1007.42
2018-11-20T03:23:54.492Z,1007.44
2018-11-20T03:24:54.455Z,1007.37
2018-11-20T03:25:54.445Z,1007.44
2018-11-20T03:26:54.511Z,1007.35
2018-11-20T03:27:54.420Z,1007.49
2018-11-20T03:28:54.444Z,1007.52
2018-11-20T03:29:54.396Z,1007.67
2018-11-20T03:30:54.390Z,1007.58
2018-11-20T03:31:54.385Z,1007.61
2018-11-20T03:32:54.393Z,1007.79
2018-11-20T03:33:54.365Z,1007.69
2018-11-20T03:34:54.372Z,1007.69
2018-11-20T03:35:54.380Z,1007.72
2018-11-20T03:36:54.327Z,1007.92
2018-11-20T03:37:54.322Z,1007.77
2018-11-20T03:38:54.371Z,1007.75
2018-11-20T03:39:54.289Z,1007.76
2018-11-20T03:40:54.283Z,1007.75
2018-11-20T03:41:54.272Z,1007.75
2018-11-20T03:42:54.257Z,1007.74
2018-11-20T03:43:54.294Z,1007.75
2018-11-20T03:44:54.272Z,1007.79
2018-11-20T03:45:54.229Z,1007.86
2018-11-20T03:46:54.212Z,1007.80
2018-11-20T03:47:54.253Z,1007.76
2018-11-20T03:48:54.194Z,1007.76
2018-11-20T03:49:54.211Z,1007.76
2018-11-20T03:50:54.207Z,1007.71
2018-11-20T03:51:54.157Z,1007.67
2018-11-20T03:52:54.160Z,1007.71
2018-11-20T03:53:54.141Z,1007.67
2018-11-20T03:54:54.128Z,1007.58
2018-11-20T03:55:54.148Z,1007.66
2018-11-20T03:56:54.107Z,1007.58
2018-11-20T03:57:54.095Z,1007.59
2018-11-20T03:58:54.084Z,1007.54
2018-11-20T03:59:54.078Z,1007.51
2018-11-20T04:00:54.092Z,1007.49
2018-11-20T04:01:54.049Z,1007.51
2018-11-20T04:02:54.039Z,1007.44
2018-11-20T04:03:54.032Z,1007.47
2018-11-20T04:04:54.020Z,1007.46
2018-11-20T04:05:54.040Z,1007.53
2018-11-20T04:06:53.997Z,1007.58
2018-11-20T04:07:53.987Z,1007.49
2018-11-20T04:08:54.008Z,1007.45
2018-11-20T04:09:53.965Z,1007.47
2018-11-20T04:10:53.957Z,1007.56
2018-11-20T04:11:53.957Z,1007.38
2018-11-20T04:12:53.940Z,1007.44
2018-11-20T04:13:53.959Z,1007.42
2018-11-20T04:14:53.909Z,1007.35
2018-11-20T04:15:53.932Z,1007.35
2018-11-20T04:16:53.891Z,1007.39
2018-11-20T04:17:53.936Z,1007.35
2018-11-20T04:18:53.904Z,1007.25
2018-11-20T04:19:53.856Z,1007.31
2018-11-20T04:20:53.847Z,1007.20
2018-11-20T04:21:53.834Z,1007.24
2018-11-20T04:22:53.829Z,1007.23
2018-11-20T04:23:53.858Z,1007.21
2018-11-20T04:24:53.801Z,1007.21
2018-11-20T04:25:53.789Z,1007.13
2018-11-20T04:26:53.779Z,1007.12
2018-11-20T04:27:53.804Z,1007.08
2018-11-20T04:28:53.760Z,1007.11
2018-11-20T04:29:53.776Z,1007.14
2018-11-20T04:30:53.732Z,1007.17
2018-11-20T04:31:53.724Z,1007.10
2018-11-20T04:32:53.715Z,1007.14
2018-11-20T04:33:53.703Z,1007.18
2018-11-20T04:34:53.731Z,1007.16
2018-11-20T04:35:53.690Z,1007.23
2018-11-20T04:36:53.695Z,1007.20
2018-11-20T04:37:53.698Z,1007.13
2018-11-20T04:38:53.648Z,1007.14
2018-11-20T04:39:53.735Z,1007.15
2018-11-20T04:40:53.629Z,1007.10
2018-11-20T04:41:53.643Z,1007.15
2018-11-20T04:42:53.603Z,1007.10
2018-11-20T04:43:53.596Z,1007.11
2018-11-20T04:44:53.623Z,1007.04
2018-11-20T04:45:53.598Z,1006.94
2018-11-20T04:46:53.569Z,1006.93
2018-11-20T04:47:53.546Z,1007.05
2018-11-20T04:48:53.537Z,1006.90
2018-11-20T04:49:53.670Z,1006.96
2018-11-20T04:50:53.514Z,1006.93
2018-11-20T04:51:53.512Z,1006.73
2018-11-20T04:52:53.500Z,1006.75
2018-11-20T04:53:53.480Z,1006.74
2018-11-20T04:54:53.508Z,1006.78
2018-11-20T04:55:53.532Z,1006.76
2018-11-20T04:56:53.503Z,1006.79
2018-11-20T04:57:53.441Z,1006.82
2018-11-20T04:58:53.487Z,1006.80
2018-11-20T04:59:53.457Z,1006.77
2018-11-20T05:00:53.409Z,1006.86
2018-11-20T05:01:53.396Z,1006.90
2018-11-20T05:02:53.389Z,1006.91
2018-11-20T05:03:53.374Z,1006.88
2018-11-20T05:04:53.401Z,1006.90
2018-11-20T05:05:53.362Z,1006.95
2018-11-20T05:06:53.387Z,1006.97
2018-11-20T05:07:53.339Z,1006.87
2018-11-20T05:08:53.321Z,1006.97
2018-11-20T05:09:53.338Z,1007.03
2018-11-20T05:10:53.331Z,1007.00
2018-11-20T05:11:53.292Z,1007.07
2018-11-20T05:12:53.287Z,1007.08
2018-11-20T05:13:53.296Z,1007.02
2018-11-20T05:14:53.254Z,1007.08
2018-11-20T05:15:53.247Z,1007.04
2018-11-20T05:16:53.233Z,1007.07
2018-11-20T05:17:53.225Z,1007.01
2018-11-20T05:18:53.256Z,1007.10
2018-11-20T05:19:53.258Z,1007.02
2018-11-20T05:20:53.199Z,1007.05
2018-11-20T05:21:53.187Z,1007.07
2018-11-20T05:22:53.168Z,1006.97
2018-11-20T05:23:53.204Z,1007.11
2018-11-20T05:24:53.150Z,1007.05
2018-11-20T05:25:53.138Z,1006.99
2018-11-20T05:26:53.125Z,1007.10
2018-11-20T05:27:53.141Z,1007.03
2018-11-20T05:28:53.136Z,1007.01
2018-11-20T05:29:53.556Z,1007.08
2018-11-20T05:30:53.136Z,1007.04
2018-11-20T05:31:53.068Z,1007.00
2018-11-20T05:32:53.087Z,1006.95
2018-11-20T05:33:53.047Z,1006.91
2018-11-20T05:34:53.096Z,1006.98
2018-11-20T05:35:53.039Z,1006.91
2018-11-20T05:36:53.018Z,1006.96
2018-11-20T05:37:53.021Z,1006.98
2018-11-20T05:38:53.023Z,1006.94
2018-11-20T05:39:52.983Z,1006.93
2018-11-20T05:40:52.972Z,1006.96
2018-11-20T05:41:52.970Z,1006.94
2018-11-20T05:42:52.951Z,1007.03
2018-11-20T05:43:52.968Z,1006.98
2018-11-20T05:44:52.962Z,1006.94
2018-11-20T05:45:52.917Z,1006.97
2018-11-20T05:46:53.042Z,1007.00
2018-11-20T05:47:52.928Z,1006.92
2018-11-20T05:48:52.885Z,1007.00
2018-11-20T05:49:52.875Z,1006.98
2018-11-20T05:50:52.867Z,1006.96
2018-11-20T05:51:52.951Z,1006.88
2018-11-20T05:52:52.909Z,1006.89
2018-11-20T05:53:52.831Z,1006.91
2018-11-20T05:54:52.822Z,1006.94
2018-11-20T05:55:52.810Z,1006.94
2018-11-20T05:56:52.794Z,1006.92
2018-11-20T05:57:52.906Z,1006.86
2018-11-20T05:58:52.784Z,1006.87
2018-11-20T05:59:52.797Z,1006.90
2018-11-20T06:00:52.752Z,1006.97
2018-11-20T06:01:52.749Z,1006.92
2018-11-20T06:02:52.761Z,1006.84
2018-11-20T06:03:52.721Z,1006.86
2018-11-20T06:04:52.714Z,1006.85
2018-11-20T06:05:52.726Z,1006.81
2018-11-20T06:06:52.697Z,1006.82
2018-11-20T06:07:52.712Z,1006.89
2018-11-20T06:08:52.702Z,1006.90
2018-11-20T06:09:52.663Z,1006.86
2018-11-20T06:10:52.652Z,1006.84
2018-11-20T06:11:52.652Z,1006.85
2018-11-20T06:12:52.734Z,1006.86
2018-11-20T06:13:52.654Z,1006.82
2018-11-20T06:14:52.633Z,1006.88
2018-11-20T06:15:52.681Z,1006.93
2018-11-20T06:16:55.325Z,1006.87
2018-11-20T06:17:52.651Z,1006.88
2018-11-20T06:18:52.632Z,1006.93
2018-11-20T06:19:52.594Z,1006.90
2018-11-20T06:20:52.539Z,1006.93
2018-11-20T06:21:52.532Z,1006.80
2018-11-20T06:22:52.566Z,1006.82
2018-11-20T06:23:52.515Z,1006.76
2018-11-20T06:24:52.542Z,1006.73
2018-11-20T06:25:52.484Z,1006.80
2018-11-20T06:26:52.472Z,1006.75
2018-11-20T06:27:52.457Z,1006.72
2018-11-20T06:28:52.566Z,1006.73
2018-11-20T06:29:52.453Z,1006.70
2018-11-20T06:30:52.460Z,1006.71
2018-11-20T06:31:52.420Z,1006.62
2018-11-20T06:32:52.414Z,1006.66
2018-11-20T06:33:52.397Z,1006.61
2018-11-20T06:34:52.418Z,1006.62
2018-11-20T06:35:52.396Z,1006.61
2018-11-20T06:36:52.376Z,1006.61
2018-11-20T06:37:52.364Z,1006.64
2018-11-20T06:38:52.365Z,1006.63
2018-11-20T06:39:52.333Z,1006.69
2018-11-20T06:40:52.452Z,1006.71
2018-11-20T06:41:52.320Z,1006.64
2018-11-20T06:42:52.299Z,1006.69
2018-11-20T06:43:52.287Z,1006.67
2018-11-20T06:44:52.278Z,1006.65
2018-11-20T06:45:52.300Z,1006.69
2018-11-20T06:46:52.264Z,1006.69
2018-11-20T06:47:52.283Z,1006.65
2018-11-20T06:48:52.235Z,1006.75
2018-11-20T06:49:52.228Z,1006.70
2018-11-20T06:50:52.208Z,1006.72
2018-11-20T06:51:52.202Z,1006.71
2018-11-20T06:52:52.303Z,1006.68
2018-11-20T06:53:52.204Z,1006.77
2018-11-20T06:54:52.246Z,1006.72
2018-11-20T06:55:52.158Z,1006.67
2018-11-20T06:56:52.146Z,1006.83
2018-11-20T06:57:52.138Z,1006.71
2018-11-20T06:58:52.130Z,1006.74
2018-11-20T06:59:52.149Z,1006.75
2018-11-20T07:00:52.113Z,1006.72
2018-11-20T07:01:52.097Z,1006.82
2018-11-20T07:02:52.083Z,1006.80
2018-11-20T07:03:52.072Z,1006.70
2018-11-20T07:04:52.099Z,1006.74
2018-11-20T07:05:52.048Z,1006.72
2018-11-20T07:06:52.036Z,1006.75
2018-11-20T07:07:52.166Z,1006.73
2018-11-20T07:08:52.156Z,1006.71
2018-11-20T07:09:52.053Z,1006.67
2018-11-20T07:10:52.044Z,1006.70
2018-11-20T07:11:51.984Z,1006.71
2018-11-20T07:12:52.029Z,1006.70
2018-11-20T07:13:51.966Z,1006.67
2018-11-20T07:14:51.959Z,1006.70
2018-11-20T07:15:52.158Z,1006.73
2018-11-20T07:16:51.951Z,1006.76
2018-11-20T07:17:51.965Z,1006.70
2018-11-20T07:18:51.918Z,1006.77
2018-11-20T07:19:51.895Z,1006.70
2018-11-20T07:20:51.925Z,1006.73
2018-11-20T07:21:51.877Z,1006.71
2018-11-20T07:22:58.915Z,1006.78
2018-11-20T07:23:51.851Z,1006.79
2018-11-20T07:24:51.896Z,1006.82
2018-11-20T07:25:51.871Z,1006.75
2018-11-20T07:26:51.822Z,1006.74
2018-11-20T07:27:51.809Z,1006.75
2018-11-20T07:28:51.798Z,1006.81
2018-11-20T07:29:51.858Z,1006.76
2018-11-20T07:30:51.960Z,1006.77
2018-11-20T07:31:51.794Z,1006.73
2018-11-20T07:32:51.761Z,1006.65
2018-11-20T07:33:51.746Z,1006.70
2018-11-20T07:34:52.528Z,1006.68
2018-11-20T07:35:51.824Z,1006.69
2018-11-20T07:36:51.998Z,1006.71
2018-11-20T07:37:51.728Z,1006.70
2018-11-20T07:38:51.688Z,1006.71
2018-11-20T07:39:51.679Z,1006.61
2018-11-20T07:40:51.693Z,1006.63
2018-11-20T07:41:51.656Z,1006.68
2018-11-20T07:42:51.671Z,1006.61
2018-11-20T07:43:51.815Z,1006.70
2018-11-20T07:44:51.655Z,1006.63
2018-11-20T07:45:51.613Z,1006.59
2018-11-20T07:46:51.600Z,1006.61
2018-11-20T07:47:51.594Z,1006.62
2018-11-20T07:48:51.605Z,1006.67
2018-11-20T07:49:51.565Z,1006.62
2018-11-20T07:50:51.594Z,1006.63
2018-11-20T07:51:51.546Z,1006.72
2018-11-20T07:52:51.537Z,1006.69
2018-11-20T07:53:51.529Z,1006.63
2018-11-20T07:54:51.511Z,1006.67
2018-11-20T07:55:51.562Z,1006.67
2018-11-20T07:56:51.526Z,1006.66
2018-11-20T07:57:51.487Z,1006.64
2018-11-20T07:58:51.475Z,1006.72
2018-11-20T07:59:51.466Z,1006.73
2018-11-20T08:00:51.484Z,1006.71
2018-11-20T08:01:51.443Z,1006.72
2018-11-20T08:02:51.457Z,1006.71
2018-11-20T08:03:51.414Z,1006.71
2018-11-20T08:04:51.403Z,1006.68
2018-11-20T08:05:51.396Z,1006.60
2018-11-20T08:06:51.381Z,1006.64
2018-11-20T08:07:51.416Z,1006.58
2018-11-20T08:08:51.365Z,1006.64
2018-11-20T08:09:51.356Z,1006.53
2018-11-20T08:10:51.342Z,1006.64
2018-11-20T08:11:51.339Z,1006.68
2018-11-20T08:12:51.357Z,1006.70
2018-11-20T08:13:51.326Z,1006.56
2018-11-20T08:14:51.302Z,1006.57
2018-11-20T08:15:51.361Z,1006.51
2018-11-20T08:16:51.271Z,1006.52
2018-11-20T08:17:52.034Z,1006.52
2018-11-20T08:18:51.251Z,1006.48
2018-11-20T08:19:51.295Z,1006.61
2018-11-20T08:20:51.236Z,1006.53
2018-11-20T08:21:51.222Z,1006.49
2018-11-20T08:22:51.227Z,1006.46
2018-11-20T08:23:51.205Z,1006.43
2018-11-20T08:24:51.221Z,1006.49
2018-11-20T08:25:51.301Z,1006.49
2018-11-20T08:26:51.168Z,1006.58
2018-11-20T08:27:51.157Z,1006.56
2018-11-20T08:28:51.177Z,1006.58
2018-11-20T08:29:51.179Z,1006.56
2018-11-20T08:30:51.149Z,1006.62
2018-11-20T08:31:51.112Z,1006.57
2018-11-20T08:32:51.107Z,1006.53
2018-11-20T08:33:51.220Z,1006.59
2018-11-20T08:34:51.139Z,1006.58
2018-11-20T08:35:51.065Z,1006.54
2018-11-20T08:36:51.061Z,1006.63
2018-11-20T08:37:51.043Z,1006.53
2018-11-20T08:38:51.039Z,1006.54
2018-11-20T08:39:51.052Z,1006.41
2018-11-20T08:40:51.013Z,1006.56
2018-11-20T08:41:51.029Z,1006.52
2018-11-20T08:42:50.994Z,1006.51
2018-11-20T08:43:50.977Z,1006.49
2018-11-20T08:44:51.010Z,1006.46
2018-11-20T08:45:50.964Z,1006.52
2018-11-20T08:46:50.950Z,1006.51
2018-11-20T08:47:51.079Z,1006.43
2018-11-20T08:48:50.922Z,1006.51
2018-11-20T08:49:50.954Z,1006.45
2018-11-20T08:50:50.907Z,1006.56
2018-11-20T08:51:50.894Z,1006.41
2018-11-20T08:52:50.909Z,1006.50
2018-11-20T08:53:51.019Z,1006.37
2018-11-20T08:54:50.899Z,1006.41
2018-11-20T08:55:50.856Z,1006.42
2018-11-20T08:56:50.843Z,1006.51
2018-11-20T08:57:50.842Z,1006.43
2018-11-20T08:58:50.812Z,1006.46
2018-11-20T08:59:50.844Z,1006.49
2018-11-20T09:00:50.795Z,1006.49
2018-11-20T09:01:50.796Z,1006.37
2018-11-20T09:02:50.837Z,1006.46
2018-11-20T09:03:50.767Z,1006.41
2018-11-20T09:04:50.752Z,1006.35
2018-11-20T09:05:50.741Z,1006.31
2018-11-20T09:06:50.733Z,1006.36
2018-11-20T09:07:50.749Z,1006.33
2018-11-20T09:08:50.716Z,1006.32
2018-11-20T09:09:50.741Z,1006.40
2018-11-20T09:10:50.685Z,1006.33
2018-11-20T09:11:50.708Z,1006.36
2018-11-20T09:12:50.670Z,1006.35
2018-11-20T09:13:50.670Z,1006.33
2018-11-20T09:14:50.643Z,1006.39
2018-11-20T09:15:50.630Z,1006.35
2018-11-20T09:16:50.654Z,1006.29
2018-11-20T09:17:50.676Z,1006.33
2018-11-20T09:18:50.598Z,1006.39
2018-11-20T09:19:50.590Z,1006.36
2018-11-20T09:20:50.579Z,1006.32
2018-11-20T09:21:50.598Z,1006.30
2018-11-20T09:22:50.557Z,1006.32
2018-11-20T09:23:50.552Z,1006.31
2018-11-20T09:24:50.540Z,1006.29
2018-11-20T09:25:50.631Z,1006.34
2018-11-20T09:26:50.544Z,1006.29
2018-11-20T09:27:50.550Z,1006.31
2018-11-20T09:28:50.513Z,1006.30
2018-11-20T09:29:50.548Z,1006.31
2018-11-20T09:30:50.465Z,1006.25
2018-11-20T09:31:50.455Z,1006.23
2018-11-20T09:32:50.474Z,1006.23
2018-11-20T09:33:50.436Z,1006.26
2018-11-20T09:34:50.533Z,1006.17
2018-11-20T09:35:50.423Z,1006.13
2018-11-20T09:36:50.418Z,1006.21
2018-11-20T09:37:51.038Z,1006.20
2018-11-20T09:38:50.405Z,1006.18
2018-11-20T09:39:50.369Z,1006.17
2018-11-20T09:40:50.362Z,1006.14
2018-11-20T09:41:50.350Z,1006.09
2018-11-20T09:42:50.338Z,1006.15
2018-11-20T09:43:50.372Z,1006.09
2018-11-20T09:44:50.318Z,1006.02
2018-11-20T09:45:50.361Z,1006.12
2018-11-20T09:46:50.299Z,1006.15
2018-11-20T09:47:50.283Z,1006.11
2018-11-20T09:48:50.292Z,1006.06
2018-11-20T09:49:50.266Z,1006.11
2018-11-20T09:50:50.306Z,1006.14
2018-11-20T09:51:50.264Z,1006.13
2018-11-20T09:52:50.359Z,1006.04
2018-11-20T09:53:50.234Z,1006.10
2018-11-20T09:54:50.243Z,1006.12
2018-11-20T09:55:50.197Z,1006.03
2018-11-20T09:56:50.185Z,1006.10
2018-11-20T09:57:50.171Z,1006.04
2018-11-20T09:58:50.160Z,1006.07
2018-11-20T09:59:50.282Z,1006.06
2018-11-20T10:00:50.142Z,1006.07
2018-11-20T10:01:50.166Z,1006.09
2018-11-20T10:02:50.128Z,1006.08
2018-11-20T10:03:50.258Z,1006.12
2018-11-20T10:04:50.093Z,1006.13
2018-11-20T10:05:50.086Z,1006.14
2018-11-20T10:06:50.151Z,1006.15
2018-11-20T10:07:50.067Z,1006.09
2018-11-20T10:08:50.112Z,1006.13
2018-11-20T10:09:50.142Z,1006.09
2018-11-20T10:10:50.048Z,1006.10
2018-11-20T10:11:50.030Z,1006.10
2018-11-20T10:12:50.011Z,1006.17
2018-11-20T10:13:50.047Z,1006.18
2018-11-20T10:14:50.298Z,1006.11
2018-11-20T10:15:49.982Z,1006.06
2018-11-20T10:16:50.028Z,1006.05
2018-11-20T10:17:49.963Z,1006.13
2018-11-20T10:18:49.949Z,1006.16
2018-11-20T10:19:49.962Z,1006.06
2018-11-20T10:20:49.958Z,1006.10
2018-11-20T10:21:49.961Z,1006.14
2018-11-20T10:22:50.004Z,1006.12
2018-11-20T10:23:50.090Z,1006.09
2018-11-20T10:24:50.038Z,1006.05
2018-11-20T10:25:50.065Z,1006.06
2018-11-20T10:26:49.860Z,1006.05
2018-11-20T10:27:49.878Z,1006.09
2018-11-20T10:28:49.839Z,1006.06
2018-11-20T10:29:49.824Z,1006.09
2018-11-20T10:30:49.810Z,1006.03
2018-11-20T10:31:49.824Z,1006.06
2018-11-20T10:32:49.786Z,1006.03
2018-11-20T10:33:49.799Z,1006.04
2018-11-20T10:34:49.897Z,1006.05
2018-11-20T10:35:49.757Z,1006.03
2018-11-20T10:36:49.759Z,1005.98
2018-11-20T10:37:49.733Z,1005.97
2018-11-20T10:38:49.723Z,1006.00
2018-11-20T10:39:49.738Z,1005.98
2018-11-20T10:40:49.730Z,1005.96
2018-11-20T10:41:49.692Z,1006.00
2018-11-20T10:42:49.727Z,1006.01
2018-11-20T10:43:49.667Z,1005.94
2018-11-20T10:44:49.691Z,1005.98
2018-11-20T10:45:49.658Z,1005.97
2018-11-20T10:46:49.672Z,1005.93
2018-11-20T10:47:49.633Z,1005.97
2018-11-20T10:48:49.614Z,1005.91
2018-11-20T10:49:49.709Z,1005.88
2018-11-20T10:50:49.621Z,1005.88
2018-11-20T10:51:49.586Z,1005.85
2018-11-20T10:52:49.575Z,1005.78
2018-11-20T10:53:49.584Z,1005.77
2018-11-20T10:54:49.576Z,1005.71
2018-11-20T10:55:49.535Z,1005.75
2018-11-20T10:56:49.524Z,1005.75
2018-11-20T10:57:49.547Z,1005.73
2018-11-20T10:58:49.528Z,1005.70
2018-11-20T10:59:49.556Z,1005.70
2018-11-20T11:00:49.485Z,1005.69
2018-11-20T11:01:49.503Z,1005.63
2018-11-20T11:02:49.463Z,1005.60
2018-11-20T11:03:49.447Z,1005.58
2018-11-20T11:04:49.453Z,1005.58
2018-11-20T11:05:50.049Z,1005.58
2018-11-20T11:06:49.642Z,1005.50
2018-11-20T11:07:49.507Z,1005.54
2018-11-20T11:08:49.449Z,1005.51
2018-11-20T11:09:49.380Z,1005.55
2018-11-20T11:10:49.369Z,1005.52
2018-11-20T11:11:49.370Z,1005.58
2018-11-20T11:12:49.467Z,1005.59
2018-11-20T11:13:49.371Z,1005.55
2018-11-20T11:14:49.396Z,1005.62
2018-11-20T11:15:49.319Z,1005.55
2018-11-20T11:16:49.346Z,1005.54
2018-11-20T11:17:49.296Z,1005.59
2018-11-20T11:18:49.311Z,1005.50
2018-11-20T11:19:49.273Z,1005.43
2018-11-20T11:20:49.339Z,1005.36
2018-11-20T11:21:49.294Z,1005.30
2018-11-20T11:22:49.255Z,1005.29
2018-11-20T11:23:49.234Z,1005.29
2018-11-20T11:24:49.242Z,1005.26
2018-11-20T11:25:49.214Z,1005.27
2018-11-20T11:26:49.240Z,1005.23
2018-11-20T11:27:49.191Z,1005.29
2018-11-20T11:28:51.370Z,1005.30
2018-11-20T11:29:49.279Z,1005.27
2018-11-20T11:30:49.154Z,1005.28
2018-11-20T11:31:49.145Z,1005.30
2018-11-20T11:32:49.168Z,1005.30
2018-11-20T11:33:49.130Z,1005.27
2018-11-20T11:34:49.147Z,1005.26
2018-11-20T11:35:49.103Z,1005.29
2018-11-20T11:36:49.088Z,1005.30
2018-11-20T11:37:49.080Z,1005.24
2018-11-20T11:38:49.073Z,1005.18
2018-11-20T11:39:49.090Z,1005.12
2018-11-20T11:40:49.053Z,1005.12
2018-11-20T11:41:49.072Z,1005.17
2018-11-20T11:42:49.035Z,1005.15
2018-11-20T11:43:49.019Z,1005.23
2018-11-20T11:44:49.005Z,1005.15
2018-11-20T11:45:49.064Z,1005.12
2018-11-20T11:46:49.014Z,1005.07
2018-11-20T11:47:48.972Z,1005.05
2018-11-20T11:48:48.990Z,1005.14
2018-11-20T11:49:48.955Z,1005.12
2018-11-20T11:50:48.969Z,1005.07
2018-11-20T11:51:48.933Z,1005.07
2018-11-20T11:52:48.917Z,1005.10
2018-11-20T11:53:48.931Z,1005.03
2018-11-20T11:54:48.936Z,1005.13
2018-11-20T11:55:48.897Z,1005.18
2018-11-20T11:56:48.886Z,1005.18
2018-11-20T11:57:48.863Z,1005.23
2018-11-20T11:58:48.882Z,1005.23
2018-11-20T11:59:48.841Z,1005.11
2018-11-20T12:00:48.841Z,1005.17
2018-11-20T12:03:48.826Z,1005.11
2018-11-20T12:04:48.790Z,1005.14
2018-11-20T12:05:48.778Z,1005.11
2018-11-20T12:06:48.770Z,1005.15
2018-11-20T12:07:48.754Z,1005.12